Elkhorn, Canada
Current Conditions -  °F | °C
As of 3:00 AM on Wednesday 22 Oct 2014 (Local Time) from CYBR Reporting Station
Clear Clear  
Wind Chill: 57°   Ceiling: Unl
Heat Index: 57°   Visibility: 15mi
Dew Point: 45°   Wind: 10mph
Humidity: 63%   Direction: 150°SSE
Pressure: 29.61"   Gusts: NA
Location:  49.97°N, 101.25°W
Report Text: CYBR 220800Z 15009KT 15SM SKC 14/07 A2961 RMK SLP031 DENSITY ALT 1800FT
Loading
Personal Weather Stations






























Interactive Weather Map
Tropical Storm Tracking
New forecast layout! Learn more

10-Day Weather Forecast

Advertisements
Track Severe Weather on mobile